Saturn, Texas
Current Conditions -  °F | °C
As of 2:15 AM on Monday 26 Jan 2015 (Local Time) from KT20 Reporting Station
Clear Clear  
Wind Chill: 46°   Ceiling: Unl
Heat Index: 46°   Visibility: 10mi
Dew Point: 35°   Wind: 0mph
Humidity: 65%   Direction: NA
Pressure: 30.21"   Gusts: NA
Location:  29.6608°N, 97.4854°W
Report Text: KT20 260815Z AUTO 00000KT 10SM CLR 08/01 A3021 RMK AO2 T00750014
Loading
Personal Weather Stations






























Interactive Weather Map New forecast layout! Learn more

10-Day Weather Forecast

Advertisements
Track Severe Weather on mobile